Time;durP1;ratioP1;P1;durP2;ratioP2;P2;SDS_P1;SDS_P2;PMS_P1;PMS_P2;Temp;Humidity;BMP_temperature;BMP_pressure;BME280_temperature;BME280_humidity;BME280_pressure;Samples;Min_cycle;Max_cycle;Signal;HPM_P1;HPM_P2
2021/12/27 00:00:19;;;;;;;3.72;2.05;;;6.70;98.00;;;;;;5015476;28;20026;-78
2021/12/27 00:02:48;;;;;;;6.28;2.85;;;6.60;98.00;;;;;;5023995;28;20033;-77
2021/12/27 00:05:14;;;;;;;2.90;1.48;;;6.30;98.00;;;;;;5015968;28;20084;-77
2021/12/27 00:07:44;;;;;;;3.65;1.40;;;6.20;98.00;;;;;;5013927;28;20108;-77
2021/12/27 00:10:13;;;;;;;3.58;1.55;;;6.00;98.00;;;;;;5015979;28;20029;-77
2021/12/27 00:12:38;;;;;;;6.07;1.77;;;6.00;98.00;;;;;;5010202;28;20445;-77
2021/12/27 00:15:04;;;;;;;2.60;1.40;;;5.90;98.00;;;;;;5014998;28;20054;-77
2021/12/27 00:17:30;;;;;;;3.05;1.40;;;5.80;98.00;;;;;;5015496;28;20065;-77
2021/12/27 00:19:56;;;;;;;2.53;1.20;;;5.80;98.00;;;;;;5016317;28;20303;-77
2021/12/27 00:22:25;;;;;;;8.77;3.60;;;5.80;98.00;;;;;;5012653;28;20469;-77
2021/12/27 00:24:51;;;;;;;6.07;1.77;;;5.70;98.00;;;;;;5015221;28;20380;-76
2021/12/27 00:27:17;;;;;;;2.72;1.30;;;5.60;98.00;;;;;;5014896;28;20064;-77
2021/12/27 00:29:44;;;;;;;2.92;1.25;;;5.80;98.00;;;;;;5015350;28;20053;-76
2021/12/27 00:32:10;;;;;;;1.98;1.10;;;6.20;98.00;;;;;;5012789;28;20049;-77
2021/12/27 00:34:36;;;;;;;2.30;1.30;;;6.30;98.00;;;;;;5016140;28;20065;-77
2021/12/27 00:37:04;;;;;;;2.55;1.23;;;6.50;98.00;;;;;;5015291;28;20444;-77
2021/12/27 00:39:30;;;;;;;2.72;1.30;;;6.50;98.00;;;;;;5017652;28;20037;-77
2021/12/27 00:41:55;;;;;;;2.33;1.08;;;6.50;98.00;;;;;;5015563;28;20030;-77
2021/12/27 00:44:21;;;;;;;1.90;1.02;;;6.50;98.00;;;;;;5016905;28;20109;-77
2021/12/27 00:46:47;;;;;;;3.58;1.33;;;6.60;98.00;;;;;;5030372;28;20026;-77
2021/12/27 00:49:12;;;;;;;1.77;1.02;;;6.50;98.00;;;;;;5016615;28;20026;-77
2021/12/27 00:51:38;;;;;;;3.90;1.95;;;6.40;98.00;;;;;;5015576;28;20033;-77
2021/12/27 00:54:04;;;;;;;4.45;1.80;;;6.40;98.00;;;;;;5014075;28;20036;-77
2021/12/27 00:56:30;;;;;;;3.90;1.60;;;6.50;98.00;;;;;;5013697;28;20549;-77
2021/12/27 00:58:56;;;;;;;3.35;1.70;;;6.40;98.00;;;;;;5013608;28;20026;-77
2021/12/27 01:01:22;;;;;;;4.78;1.70;;;6.30;98.00;;;;;;5014838;28;20419;-77
2021/12/27 01:03:48;;;;;;;3.08;1.65;;;6.10;98.00;;;;;;5014075;28;20109;-77
2021/12/27 01:06:13;;;;;;;3.42;1.80;;;5.80;98.00;;;;;;5015728;28;20080;-77
2021/12/27 01:08:39;;;;;;;4.57;2.15;;;5.60;98.00;;;;;;5014099;28;20033;-77
2021/12/27 01:11:23;;;;;;;3.42;1.80;;;5.40;98.00;;;;;;5012585;28;20113;-77
2021/12/27 01:14:02;;;;;;;3.50;1.60;;;5.10;98.00;;;;;;5016264;28;20025;-77
2021/12/27 01:16:29;;;;;;;3.25;1.90;;;5.10;98.00;;;;;;5014401;28;20041;-77
2021/12/27 01:18:55;;;;;;;6.50;2.60;;;5.00;98.00;;;;;;5015496;28;20322;-76
2021/12/27 01:21:24;;;;;;;3.13;1.58;;;4.90;98.00;;;;;;5014120;28;20026;-77
2021/12/27 01:23:51;;;;;;;3.10;1.65;;;4.80;97.80;;;;;;5019349;28;20018;-76
2021/12/27 01:26:17;;;;;;;6.15;2.08;;;4.70;97.90;;;;;;5016006;28;20497;-76
2021/12/27 01:28:44;;;;;;;7.10;1.60;;;4.60;97.70;;;;;;5018541;28;20037;-77
2021/12/27 01:31:10;;;;;;;4.47;1.90;;;4.60;97.10;;;;;;5049621;28;20040;-77
2021/12/27 01:33:36;;;;;;;3.70;1.50;;;4.70;97.20;;;;;;5016936;28;20030;-77
2021/12/27 01:36:04;;;;;;;2.58;1.25;;;4.60;96.80;;;;;;5017196;28;21890;-77
2021/12/27 01:38:30;;;;;;;5.60;2.20;;;4.70;96.70;;;;;;5017500;28;20029;-77
2021/12/27 01:40:57;;;;;;;3.15;1.70;;;4.60;97.70;;;;;;5018012;28;20018;-77
2021/12/27 01:43:28;;;;;;;3.17;1.50;;;4.50;96.70;;;;;;5033181;28;20022;-78
2021/12/27 01:45:55;;;;;;;4.30;1.73;;;4.60;96.80;;;;;;5016854;28;20030;-77
2021/12/27 01:48:24;;;;;;;2.92;1.60;;;4.60;96.70;;;;;;5017508;28;20026;-77
2021/12/27 01:50:54;;;;;;;2.90;1.42;;;4.60;96.30;;;;;;5017894;28;20056;-77
2021/12/27 01:53:23;;;;;;;4.22;1.40;;;4.80;95.90;;;;;;5030028;28;20216;-77
2021/12/27 01:55:50;;;;;;;2.58;1.42;;;5.00;96.70;;;;;;5017583;28;20419;-77
2021/12/27 01:58:16;;;;;;;2.88;1.20;;;5.10;96.90;;;;;;5017777;28;20065;-77
2021/12/27 02:00:46;;;;;;;1.77;1.00;;;5.30;98.00;;;;;;5026236;28;20018;-77
2021/12/27 02:03:15;;;;;;;2.50;1.20;;;5.50;98.00;;;;;;5017591;28;20370;-77
2021/12/27 02:05:44;;;;;;;2.55;1.10;;;5.70;98.00;;;;;;5016022;28;20037;-77
2021/12/27 02:08:11;;;;;;;2.92;1.10;;;5.70;98.00;;;;;;5015021;28;20028;-77
2021/12/27 02:10:40;;;;;;;3.65;1.40;;;5.70;98.00;;;;;;5032233;28;20335;-77
2021/12/27 02:13:07;;;;;;;2.03;1.08;;;5.70;98.00;;;;;;5018195;28;20030;-77
2021/12/27 02:15:33;;;;;;;2.28;1.20;;;5.70;98.00;;;;;;5017127;28;20065;-77
2021/12/27 02:17:59;;;;;;;2.72;1.33;;;5.90;98.00;;;;;;5016377;28;20034;-77
2021/12/27 02:20:28;;;;;;;2.95;1.42;;;5.90;98.00;;;;;;5020779;28;20069;-77
2021/12/27 02:23:00;;;;;;;4.18;1.27;;;6.00;98.00;;;;;;5015576;28;20415;-77
2021/12/27 02:25:27;;;;;;;2.70;1.20;;;5.80;98.00;;;;;;5016443;28;20080;-77
2021/12/27 02:27:53;;;;;;;2.90;1.30;;;5.70;98.00;;;;;;5017109;28;20096;-77
2021/12/27 02:30:21;;;;;;;2.63;1.05;;;5.70;98.00;;;;;;5023914;28;20430;-77
2021/12/27 02:32:53;;;;;;;3.08;1.25;;;6.00;98.00;;;;;;5019830;28;20411;-77
2021/12/27 02:35:40;;;;;;;1.95;1.13;;;6.00;98.00;;;;;;5017845;28;20022;-77
2021/12/27 02:38:09;;;;;;;2.33;1.15;;;6.00;98.00;;;;;;5014550;28;20053;-77
2021/12/27 02:40:36;;;;;;;2.42;1.20;;;5.90;98.00;;;;;;5016924;28;20026;-77
2021/12/27 02:43:07;;;;;;;7.55;4.05;;;5.70;98.00;;;;;;5017523;28;20422;-77
2021/12/27 02:45:36;;;;;;;3.83;2.05;;;5.50;98.00;;;;;;5027776;28;20397;-78
2021/12/27 02:48:03;;;;;;;5.97;3.17;;;5.40;98.00;;;;;;5017365;28;20037;-77
2021/12/27 02:50:29;;;;;;;4.32;1.80;;;5.20;98.00;;;;;;5020290;28;20481;-78
2021/12/27 02:52:55;;;;;;;2.95;1.60;;;5.10;98.00;;;;;;5011462;28;20026;-78
2021/12/27 02:55:21;;;;;;;5.07;2.15;;;5.00;98.00;;;;;;5005359;28;20050;-77
2021/12/27 02:57:48;;;;;;;4.05;1.67;;;5.00;97.90;;;;;;5032418;28;20029;-78
2021/12/27 03:00:29;;;;;;;3.85;2.10;;;5.00;97.90;;;;;;5035851;28;20067;-77
2021/12/27 03:02:56;;;;;;;3.63;2.03;;;5.00;97.90;;;;;;5029511;28;20033;-77
2021/12/27 03:05:24;;;;;;;6.63;2.05;;;5.10;97.80;;;;;;5019755;28;20318;-78
2021/12/27 03:07:50;;;;;;;4.90;2.20;;;5.10;98.00;;;;;;5015697;28;20841;-77
2021/12/27 03:10:20;;;;;;;3.63;2.10;;;5.10;98.00;;;;;;5029238;28;20033;-77
2021/12/27 03:12:47;;;;;;;4.68;2.13;;;5.10;98.00;;;;;;5028532;28;20026;-77
2021/12/27 03:15:15;;;;;;;3.35;1.90;;;5.10;98.00;;;;;;5004708;28;20469;-77
2021/12/27 03:17:45;;;;;;;4.03;1.83;;;5.20;98.00;;;;;;5012786;28;20132;-77
2021/12/27 03:20:16;;;;;;;3.60;1.80;;;5.40;98.00;;;;;;5021593;28;20017;-77
2021/12/27 03:22:42;;;;;;;3.75;1.63;;;5.40;98.00;;;;;;5022924;28;20022;-77
2021/12/27 03:25:22;;;;;;;3.22;1.75;;;5.50;98.00;;;;;;5020839;28;20315;-76
2021/12/27 03:27:48;;;;;;;3.20;1.73;;;5.50;98.00;;;;;;5002630;28;20038;-77
2021/12/27 03:30:17;;;;;;;3.10;1.70;;;5.60;98.00;;;;;;5016652;28;20056;-77
2021/12/27 03:32:43;;;;;;;3.00;1.80;;;5.70;98.00;;;;;;5021774;28;20037;-77
2021/12/27 03:35:14;;;;;;;4.30;2.05;;;5.70;98.00;;;;;;5016835;28;20032;-77
2021/12/27 03:37:45;;;;;;;3.55;2.00;;;5.70;98.00;;;;;;5015087;28;20033;-77
2021/12/27 03:40:14;;;;;;;3.88;2.13;;;5.80;98.00;;;;;;5015795;28;20022;-77
2021/12/27 03:42:40;;;;;;;3.40;1.80;;;5.80;98.00;;;;;;5015750;28;20026;-76
2021/12/27 03:45:07;;;;;;;3.63;1.90;;;5.80;98.00;;;;;;5014710;28;20073;-77
2021/12/27 03:47:33;;;;;;;5.57;2.65;;;5.80;98.00;;;;;;5015397;28;20095;-77
2021/12/27 03:49:58;;;;;;;3.47;1.90;;;5.80;98.00;;;;;;5019218;28;20422;-77
2021/12/27 03:52:24;;;;;;;4.20;2.00;;;5.80;98.00;;;;;;5014468;28;20042;-77
2021/12/27 03:54:50;;;;;;;3.20;1.50;;;5.80;98.00;;;;;;5021932;28;20029;-77
2021/12/27 03:57:16;;;;;;;4.18;1.85;;;5.90;98.00;;;;;;5020683;28;20040;-77
2021/12/27 04:02:09;;;;;;;4.22;1.83;;;5.80;98.00;;;;;;5016264;28;20096;-77
2021/12/27 04:04:34;;;;;;;3.65;1.85;;;5.80;98.00;;;;;;5015845;28;20021;-77
2021/12/27 04:07:00;;;;;;;3.70;2.05;;;5.80;98.00;;;;;;5015188;28;20041;-77
2021/12/27 04:09:27;;;;;;;4.57;2.00;;;5.70;98.00;;;;;;5017822;28;20026;-77
2021/12/27 04:11:53;;;;;;;4.50;2.00;;;5.60;98.00;;;;;;5015955;28;20022;-77
2021/12/27 04:14:19;;;;;;;4.32;2.00;;;5.50;98.00;;;;;;5015864;28;20034;-77
2021/12/27 04:16:46;;;;;;;3.75;1.98;;;5.50;98.00;;;;;;5014350;28;20049;-77
2021/12/27 04:19:12;;;;;;;3.30;1.90;;;5.40;98.00;;;;;;5015544;28;20018;-77
2021/12/27 04:21:38;;;;;;;3.83;2.03;;;5.40;98.00;;;;;;5015566;28;20026;-77
2021/12/27 04:24:04;;;;;;;5.38;1.83;;;5.40;98.00;;;;;;5017745;28;20022;-77
2021/12/27 04:26:30;;;;;;;4.20;2.20;;;5.30;98.00;;;;;;5025627;28;20038;-77
2021/12/27 04:28:55;;;;;;;3.70;2.05;;;5.30;98.00;;;;;;5016212;28;20080;-77
2021/12/27 04:31:21;;;;;;;4.22;2.10;;;5.30;98.00;;;;;;5015282;28;20034;-77
2021/12/27 04:33:47;;;;;;;5.05;2.22;;;5.30;98.00;;;;;;5015579;28;20113;-77
2021/12/27 04:36:13;;;;;;;3.85;1.88;;;5.30;98.00;;;;;;5013800;28;20108;-77
2021/12/27 04:38:39;;;;;;;3.70;2.00;;;5.50;98.00;;;;;;5017067;28;20017;-77
2021/12/27 04:41:06;;;;;;;4.30;2.45;;;5.60;98.00;;;;;;5030580;28;20102;-77
2021/12/27 04:43:32;;;;;;;3.72;1.85;;;5.60;98.00;;;;;;5015903;28;20022;-77
2021/12/27 04:45:58;;;;;;;4.80;2.20;;;5.70;98.00;;;;;;5015946;28;20038;-77
2021/12/27 04:48:25;;;;;;;4.38;1.98;;;5.70;98.00;;;;;;5015888;28;20030;-77
2021/12/27 04:50:52;;;;;;;3.88;2.08;;;5.70;98.00;;;;;;5032083;28;20109;-77
2021/12/27 04:53:18;;;;;;;4.40;2.63;;;5.70;98.00;;;;;;5011596;28;20029;-77
2021/12/27 04:55:46;;;;;;;4.55;2.30;;;5.70;98.00;;;;;;5015336;28;20045;-77
2021/12/27 04:58:16;;;;;;;5.20;3.00;;;5.80;98.00;;;;;;5014802;28;20197;-77
2021/12/27 05:00:42;;;;;;;3.55;1.95;;;5.80;98.00;;;;;;5016678;28;20021;-77
2021/12/27 05:03:07;;;;;;;4.05;2.28;;;5.80;98.00;;;;;;5018456;28;20032;-77
2021/12/27 05:05:34;;;;;;;4.70;2.33;;;5.80;98.00;;;;;;5019210;28;20022;-78
2021/12/27 05:08:01;;;;;;;4.72;2.28;;;5.80;98.00;;;;;;5028470;28;20037;-77
2021/12/27 05:10:28;;;;;;;4.22;2.30;;;5.80;98.00;;;;;;5019870;28;20021;-77
2021/12/27 05:12:53;;;;;;;5.45;2.30;;;5.80;98.00;;;;;;5019871;28;20069;-77
2021/12/27 05:15:19;;;;;;;5.45;2.53;;;5.80;98.00;;;;;;5018729;28;20441;-77
2021/12/27 05:17:48;;;;;;;4.13;2.15;;;5.70;98.00;;;;;;5017997;28;20030;-77
2021/12/27 05:20:14;;;;;;;4.75;2.00;;;5.60;98.00;;;;;;5015430;28;20036;-77
2021/12/27 05:22:40;;;;;;;6.05;2.63;;;5.50;98.00;;;;;;5018538;28;20026;-77
2021/12/27 05:25:09;;;;;;;3.05;1.65;;;5.40;98.00;;;;;;5019130;28;20022;-77
2021/12/27 05:27:36;;;;;;;3.60;1.88;;;5.30;98.00;;;;;;5018157;28;20033;-77
2021/12/27 05:30:02;;;;;;;4.93;1.95;;;5.40;98.00;;;;;;5018155;28;20049;-76
2021/12/27 05:32:28;;;;;;;2.92;1.65;;;5.50;98.00;;;;;;5018124;28;20137;-77
2021/12/27 05:34:53;;;;;;;3.90;1.80;;;5.60;98.00;;;;;;5018394;28;20096;-77
2021/12/27 05:37:19;;;;;;;4.28;2.30;;;5.70;98.00;;;;;;5032374;28;20040;-77
2021/12/27 05:39:45;;;;;;;4.20;2.30;;;5.70;98.00;;;;;;5018925;28;20032;-78
2021/12/27 05:42:10;;;;;;;4.45;2.65;;;5.60;98.00;;;;;;5017105;28;20441;-78
2021/12/27 05:44:36;;;;;;;5.13;2.53;;;5.60;98.00;;;;;;5018970;28;20348;-78
2021/12/27 05:47:02;;;;;;;4.55;2.70;;;5.50;98.00;;;;;;5018857;28;20026;-77
2021/12/27 05:49:28;;;;;;;6.90;2.53;;;5.40;98.00;;;;;;5018843;28;20041;-77
2021/12/27 05:51:53;;;;;;;5.47;3.38;;;5.40;98.00;;;;;;5022603;28;20417;-77
2021/12/27 05:54:22;;;;;;;4.75;2.75;;;5.30;98.00;;;;;;5032410;28;20104;-77
2021/12/27 05:56:49;;;;;;;6.72;3.15;;;5.30;98.00;;;;;;5017724;28;20032;-77
2021/12/27 05:59:16;;;;;;;4.65;2.80;;;5.20;98.00;;;;;;5017804;28;20025;-77
2021/12/27 06:01:43;;;;;;;5.00;2.90;;;5.20;98.00;;;;;;5022441;28;20411;-77
2021/12/27 06:04:12;;;;;;;4.47;2.47;;;5.30;98.00;;;;;;5020450;28;20022;-77
2021/12/27 06:06:38;;;;;;;4.93;2.80;;;5.40;98.00;;;;;;5017375;28;20330;-77
2021/12/27 06:09:05;;;;;;;5.38;3.10;;;5.40;98.00;;;;;;5016874;28;20030;-77
2021/12/27 06:11:32;;;;;;;4.82;2.92;;;5.40;98.00;;;;;;5017204;28;20042;-77
2021/12/27 06:13:58;;;;;;;5.78;2.90;;;5.50;98.00;;;;;;5016364;28;20041;-78
2021/12/27 06:16:24;;;;;;;4.50;2.53;;;5.50;98.00;;;;;;5016520;28;20129;-77
2021/12/27 06:18:50;;;;;;;4.47;2.35;;;5.40;98.00;;;;;;5031767;28;20057;-77
2021/12/27 06:21:16;;;;;;;4.60;2.58;;;5.40;98.00;;;;;;5018015;28;20315;-77
2021/12/27 06:23:42;;;;;;;5.57;2.53;;;5.40;98.00;;;;;;5016314;28;20029;-77
2021/12/27 06:26:08;;;;;;;4.72;2.80;;;5.30;98.00;;;;;;5017344;28;20104;-77
2021/12/27 06:28:34;;;;;;;5.25;2.55;;;5.20;98.00;;;;;;5017943;28;20101;-77
2021/12/27 06:31:01;;;;;;;5.63;2.45;;;5.10;98.00;;;;;;5017307;28;20042;-77
2021/12/27 06:33:30;;;;;;;5.85;2.60;;;5.00;98.00;;;;;;5019950;28;20453;-77
2021/12/27 06:35:57;;;;;;;4.72;2.78;;;4.90;98.00;;;;;;5027746;28;20037;-77
2021/12/27 06:38:23;;;;;;;4.70;2.80;;;4.90;98.00;;;;;;5025287;28;20116;-77
2021/12/27 06:40:49;;;;;;;5.82;3.10;;;4.80;98.00;;;;;;5017709;28;20101;-77
2021/12/27 06:43:15;;;;;;;5.35;2.97;;;4.80;98.00;;;;;;5027891;28;20026;-77
2021/12/27 06:45:41;;;;;;;4.93;2.90;;;4.80;98.00;;;;;;5017492;28;20080;-77
2021/12/27 06:48:06;;;;;;;6.22;3.38;;;4.70;98.00;;;;;;5019463;28;20081;-77
2021/12/27 06:50:32;;;;;;;6.97;3.95;;;4.80;98.00;;;;;;5030400;28;20358;-77
2021/12/27 06:52:58;;;;;;;6.22;3.40;;;4.80;98.00;;;;;;5024362;28;20060;-77
2021/12/27 06:55:23;;;;;;;7.80;3.67;;;4.70;98.00;;;;;;5017386;28;20040;-77
2021/12/27 06:57:49;;;;;;;7.85;4.03;;;4.70;98.00;;;;;;5004962;28;20037;-77
2021/12/27 07:00:15;;;;;;;7.72;4.85;;;4.70;98.00;;;;;;5017840;28;20052;-77
2021/12/27 07:02:43;;;;;;;6.25;3.35;;;4.70;98.00;;;;;;5017444;28;20026;-77
2021/12/27 07:05:09;;;;;;;6.57;3.72;;;4.70;98.00;;;;;;5017210;28;20077;-77
2021/12/27 07:07:35;;;;;;;6.65;3.50;;;4.70;98.00;;;;;;5026451;28;20546;-77
2021/12/27 07:10:01;;;;;;;5.65;3.42;;;4.80;98.00;;;;;;5029341;28;20042;-77
2021/12/27 07:12:26;;;;;;;6.15;3.50;;;4.70;98.00;;;;;;5018701;28;20506;-77
2021/12/27 07:14:53;;;;;;;7.00;3.30;;;4.70;98.00;;;;;;5017206;28;20478;-77
2021/12/27 07:17:19;;;;;;;7.32;3.45;;;4.70;98.00;;;;;;5021124;28;20108;-77
2021/12/27 07:19:45;;;;;;;6.57;3.38;;;4.80;98.00;;;;;;5020554;28;20025;-77
2021/12/27 07:22:11;;;;;;;7.13;3.83;;;4.80;98.00;;;;;;5018725;28;20029;-77
2021/12/27 07:24:37;;;;;;;5.93;3.63;;;4.70;98.00;;;;;;5032299;28;20021;-77
2021/12/27 07:27:03;;;;;;;6.75;4.03;;;4.70;98.00;;;;;;5036682;28;20137;-77
2021/12/27 07:29:29;;;;;;;7.50;4.25;;;4.60;98.00;;;;;;5036960;28;20463;-77
2021/12/27 07:31:58;;;;;;;7.82;3.90;;;4.60;98.00;;;;;;5052532;28;20025;-76
2021/12/27 07:34:24;;;;;;;6.88;3.97;;;4.60;98.00;;;;;;5029199;28;20386;-77
2021/12/27 07:36:55;;;;;;;7.05;4.20;;;4.60;98.00;;;;;;5016777;28;20028;-77
2021/12/27 07:39:21;;;;;;;8.13;4.75;;;4.70;98.00;;;;;;5014969;28;20026;-77
2021/12/27 07:41:47;;;;;;;7.78;5.25;;;4.70;98.00;;;;;;5015908;28;20485;-77
2021/12/27 07:44:13;;;;;;;10.18;5.88;;;4.70;98.00;;;;;;5015936;28;20030;-77
2021/12/27 07:46:40;;;;;;;8.30;5.20;;;4.70;98.00;;;;;;5034325;28;20029;-77
2021/12/27 07:49:07;;;;;;;8.05;5.00;;;4.80;98.00;;;;;;5028675;28;20029;-77
2021/12/27 07:51:33;;;;;;;6.55;4.10;;;4.80;98.00;;;;;;5021266;28;20038;-77
2021/12/27 07:53:59;;;;;;;7.75;4.68;;;4.90;98.00;;;;;;5014852;28;20037;-77
2021/12/27 07:56:24;;;;;;;7.97;4.93;;;4.80;98.00;;;;;;5016640;28;20419;-77
2021/12/27 07:58:50;;;;;;;7.53;4.85;;;4.70;98.00;;;;;;5016252;28;20033;-77
2021/12/27 08:01:16;;;;;;;9.90;5.68;;;4.70;98.00;;;;;;5016392;28;20101;-77
2021/12/27 08:03:42;;;;;;;9.65;5.45;;;4.60;98.00;;;;;;5020982;28;20032;-77
2021/12/27 08:06:11;;;;;;;9.23;4.82;;;4.60;98.00;;;;;;5026418;28;20029;-77
2021/12/27 08:08:37;;;;;;;9.82;4.45;;;4.60;98.00;;;;;;5018704;28;20113;-77
2021/12/27 08:11:02;;;;;;;6.53;3.83;;;4.70;98.00;;;;;;5024801;28;20113;-77
2021/12/27 08:13:28;;;;;;;8.40;5.00;;;4.80;98.00;;;;;;5012289;28;20081;-77
2021/12/27 08:15:54;;;;;;;8.45;4.88;;;4.80;98.00;;;;;;5019235;28;20044;-77
2021/12/27 08:18:20;;;;;;;8.48;5.00;;;4.80;98.00;;;;;;5021621;28;20030;-77
2021/12/27 08:20:47;;;;;;;7.57;4.45;;;4.80;98.00;;;;;;5018940;28;20022;-77
2021/12/27 08:23:13;;;;;;;9.82;6.00;;;4.80;98.00;;;;;;5013703;28;20050;-76
2021/12/27 08:25:39;;;;;;;11.82;6.18;;;4.80;98.00;;;;;;5015619;28;20046;-76
2021/12/27 08:28:05;;;;;;;10.38;5.88;;;4.90;98.00;;;;;;5021801;28;20072;-76
2021/12/27 08:30:31;;;;;;;10.15;5.75;;;4.90;98.00;;;;;;5014935;28;20030;-76
2021/12/27 08:32:59;;;;;;;9.10;4.70;;;5.00;98.00;;;;;;5014199;28;20341;-77
2021/12/27 08:35:26;;;;;;;9.77;4.85;;;5.00;98.00;;;;;;5013725;28;20030;-77
2021/12/27 08:37:52;;;;;;;7.35;4.00;;;5.10;98.00;;;;;;5017502;28;20028;-77
2021/12/27 08:40:17;;;;;;;7.63;4.50;;;5.20;98.00;;;;;;5016139;28;20025;-78
2021/12/27 08:42:43;;;;;;;6.50;3.88;;;5.60;98.00;;;;;;5015527;28;20323;-77
2021/12/27 08:45:10;;;;;;;5.80;3.45;;;5.90;98.00;;;;;;5017079;28;20034;-77
2021/12/27 08:47:36;;;;;;;7.68;4.43;;;6.30;98.00;;;;;;5015794;28;20137;-78
2021/12/27 08:50:02;;;;;;;12.30;6.78;;;6.70;98.00;;;;;;5016669;28;20025;-77
2021/12/27 08:52:30;;;;;;;7.35;4.55;;;7.30;98.00;;;;;;5030671;28;20029;-78
2021/12/27 08:54:56;;;;;;;7.03;4.03;;;7.60;98.00;;;;;;5019097;28;20061;-77
2021/12/27 08:57:21;;;;;;;5.97;3.45;;;7.60;98.00;;;;;;5012277;28;20037;-77
2021/12/27 08:59:47;;;;;;;9.73;5.43;;;7.30;98.00;;;;;;5015259;28;20018;-77
2021/12/27 09:02:13;;;;;;;8.57;4.05;;;7.30;98.00;;;;;;5015011;28;20034;-78
2021/12/27 09:04:38;;;;;;;6.28;3.42;;;7.40;98.00;;;;;;5014661;28;20022;-77
2021/12/27 09:07:04;;;;;;;9.35;4.38;;;7.70;98.00;;;;;;5014742;28;20030;-77
2021/12/27 09:09:31;;;;;;;6.55;3.40;;;7.50;98.00;;;;;;5015456;28;20034;-77
2021/12/27 09:11:57;;;;;;;7.13;3.97;;;7.40;98.00;;;;;;5015327;28;20033;-77
2021/12/27 09:14:22;;;;;;;7.10;2.72;;;7.60;98.00;;;;;;5013821;28;20360;-77
2021/12/27 09:16:48;;;;;;;6.28;3.53;;;7.50;98.00;;;;;;5015314;28;20093;-77
2021/12/27 09:19:15;;;;;;;6.63;3.88;;;7.50;98.00;;;;;;5013903;28;20022;-78
2021/12/27 09:21:40;;;;;;;6.55;3.80;;;7.60;98.00;;;;;;5014301;28;20033;-77
2021/12/27 09:24:09;;;;;;;4.00;2.40;;;7.60;98.00;;;;;;5013912;28;20034;-77
2021/12/27 09:26:35;;;;;;;7.18;3.97;;;7.20;98.00;;;;;;5016086;28;20084;-77
2021/12/27 09:29:01;;;;;;;6.82;3.08;;;7.00;98.00;;;;;;5015212;28;20061;-77
2021/12/27 09:31:27;;;;;;;4.35;2.30;;;7.80;98.00;;;;;;5012876;28;20140;-77
2021/12/27 09:33:53;;;;;;;5.20;2.45;;;8.80;98.00;;;;;;5015637;28;20030;-78
2021/12/27 09:36:19;;;;;;;4.20;2.15;;;9.40;96.60;;;;;;5015388;28;20030;-77
2021/12/27 09:38:45;;;;;;;4.68;2.30;;;9.70;94.30;;;;;;5013847;28;20060;-77
2021/12/27 09:41:14;;;;;;;4.30;2.20;;;10.10;93.20;;;;;;5015153;28;20018;-77
2021/12/27 09:43:40;;;;;;;5.57;2.55;;;10.40;91.50;;;;;;5016249;28;20029;-77
2021/12/27 09:46:06;;;;;;;5.10;2.25;;;10.40;91.70;;;;;;5016267;28;20050;-77
2021/12/27 09:48:34;;;;;;;4.30;2.15;;;10.70;91.00;;;;;;5027627;28;20330;-77
2021/12/27 09:51:00;;;;;;;5.75;3.38;;;10.80;90.60;;;;;;5028883;28;20032;-77
2021/12/27 09:53:26;;;;;;;6.03;3.05;;;10.90;90.40;;;;;;5016713;28;20029;-77
2021/12/27 09:55:52;;;;;;;4.38;2.10;;;10.90;89.80;;;;;;5019946;28;20046;-78
2021/12/27 09:58:19;;;;;;;5.00;2.80;;;10.70;90.40;;;;;;5023894;28;20040;-77
2021/12/27 10:00:44;;;;;;;6.43;2.85;;;10.30;92.30;;;;;;5018504;28;20026;-77
2021/12/27 10:03:10;;;;;;;5.22;2.20;;;10.50;91.80;;;;;;5018183;28;20040;-77
2021/12/27 10:05:37;;;;;;;4.90;2.30;;;11.40;91.20;;;;;;5019024;28;20045;-78
2021/12/27 10:08:03;;;;;;;4.43;2.47;;;11.50;89.00;;;;;;5017344;28;20069;-78
2021/12/27 10:10:36;;;;;;;4.78;2.67;;;11.70;89.20;;;;;;5026970;28;20330;-77
2021/12/27 10:13:09;;;;;;;5.10;2.83;;;11.80;88.10;;;;;;5019359;28;20022;-77
2021/12/27 10:15:40;;;;;;;5.80;2.75;;;11.80;87.40;;;;;;5021881;28;20038;-77
2021/12/27 10:18:14;;;;;;;5.97;3.30;;;11.40;89.00;;;;;;5018832;28;20034;-77
2021/12/27 10:20:41;;;;;;;;;;;11.20;88.90;;;;;;5017481;28;20030;-77
2021/12/27 10:23:07;;;;;;;5.28;2.60;;;11.30;89.60;;;;;;5017018;28;19909;-77
2021/12/27 10:25:36;;;;;;;5.00;2.83;;;11.60;89.10;;;;;;5032361;28;20030;-77
2021/12/27 10:28:03;;;;;;;5.32;2.90;;;11.90;87.90;;;;;;5018335;28;20057;-77
2021/12/27 10:30:32;;;;;;;7.22;3.13;;;12.00;87.00;;;;;;5018119;28;20448;-77
2021/12/27 10:33:09;;;;;;;5.55;3.25;;;11.60;86.90;;;;;;5021973;28;20533;-77
2021/12/27 10:35:44;;;;;;;5.72;3.40;;;11.00;88.80;;;;;;5031214;28;20037;-77
2021/12/27 10:38:13;;;;;;;6.88;3.67;;;11.00;90.10;;;;;;5009670;28;20338;-80
2021/12/27 10:40:38;;;;;;;6.07;3.55;;;11.40;89.40;;;;;;5016987;28;20044;-77
2021/12/27 10:43:04;;;;;;;6.45;3.30;;;11.20;88.80;;;;;;5016967;28;20427;-77
2021/12/27 10:45:30;;;;;;;5.90;3.10;;;10.90;90.50;;;;;;5018284;28;20030;-77
2021/12/27 10:48:02;;;;;;;6.03;3.33;;;11.10;90.10;;;;;;5028476;28;20486;-77
2021/12/27 10:50:31;;;;;;;5.93;3.10;;;11.10;90.50;;;;;;5017341;28;20026;-77
2021/12/27 10:52:59;;;;;;;6.43;3.55;;;11.20;89.70;;;;;;5018635;28;20411;-77
2021/12/27 10:55:35;;;;;;;4.97;2.83;;;11.20;89.40;;;;;;5017060;28;20104;-77
2021/12/27 10:58:23;;;;;;;4.63;2.55;;;10.90;89.50;;;;;;5025494;28;20033;-77
2021/12/27 11:01:01;;;;;;;6.00;2.60;;;10.90;90.90;;;;;;5017839;28;20022;-77
2021/12/27 11:03:37;;;;;;;6.03;2.67;;;11.30;89.10;;;;;;5018595;28;20080;-77
2021/12/27 11:06:08;;;;;;;5.22;2.70;;;11.60;87.80;;;;;;5021191;28;20030;-77
2021/12/27 11:08:35;;;;;;;5.30;2.45;;;11.60;88.40;;;;;;5017876;28;20034;-77
2021/12/27 11:11:03;;;;;;;4.85;2.45;;;12.00;88.00;;;;;;5021287;28;20036;-77
2021/12/27 11:13:31;;;;;;;4.45;2.45;;;12.60;86.30;;;;;;5018103;28;20040;-77
2021/12/27 11:15:57;;;;;;;4.13;2.40;;;12.40;84.90;;;;;;5019420;28;20037;-78
2021/12/27 11:18:24;;;;;;;3.85;2.03;;;12.10;86.30;;;;;;5017584;28;20042;-77
2021/12/27 11:20:53;;;;;;;4.93;2.40;;;12.10;87.10;;;;;;5021616;28;20057;-77
2021/12/27 11:23:21;;;;;;;4.50;2.08;;;12.40;85.60;;;;;;5018869;28;20022;-77
2021/12/27 11:25:47;;;;;;;4.30;2.10;;;12.40;85.90;;;;;;5027494;28;20018;-77
2021/12/27 11:28:33;;;;;;;4.28;2.42;;;12.30;86.10;;;;;;5022148;28;20115;-78
2021/12/27 11:31:04;;;;;;;4.88;2.17;;;12.00;86.60;;;;;;5017929;28;20156;-78
2021/12/27 11:33:30;;;;;;;4.32;2.42;;;11.70;87.90;;;;;;5017038;28;20029;-78
2021/12/27 11:35:58;;;;;;;4.63;2.58;;;11.70;88.30;;;;;;5020144;28;20026;-78
2021/12/27 11:38:40;;;;;;;4.38;2.55;;;11.50;89.60;;;;;;5016101;28;20034;-77
2021/12/27 11:41:33;;;;;;;4.38;2.22;;;11.60;89.00;;;;;;5016673;28;20489;-78
2021/12/27 11:44:00;;;;;;;5.30;2.58;;;11.40;89.00;;;;;;5023029;28;20037;-77
2021/12/27 11:46:51;;;;;;;4.20;2.10;;;11.50;89.50;;;;;;5016787;28;20057;-77
2021/12/27 11:49:51;;;;;;;4.53;2.70;;;11.60;89.20;;;;;;5016866;28;20308;-77
2021/12/27 11:52:29;;;;;;;5.00;2.80;;;11.30;89.20;;;;;;5014282;28;20046;-77
2021/12/27 11:55:22;;;;;;;4.43;2.40;;;10.80;90.40;;;;;;5016707;28;20022;-77
2021/12/27 11:57:53;;;;;;;4.07;2.28;;;10.50;90.50;;;;;;5001637;28;20022;-77
2021/12/27 12:00:19;;;;;;;5.90;2.42;;;10.00;92.40;;;;;;5022929;28;20076;-77
2021/12/27 12:02:46;;;;;;;4.55;2.47;;;9.80;93.40;;;;;;5018160;28;20026;-77
2021/12/27 12:05:47;;;;;;;6.57;3.60;;;9.80;93.60;;;;;;5015928;28;20112;-77
2021/12/27 12:08:19;;;;;;;6.53;3.30;;;9.80;94.10;;;;;;5030677;28;20022;-77
2021/12/27 12:10:52;;;;;;;5.43;2.75;;;10.00;94.20;;;;;;5015677;28;20029;-77
2021/12/27 12:13:19;;;;;;;5.22;2.83;;;9.80;93.70;;;;;;5033556;28;20029;-77
2021/12/27 12:16:07;;;;;;;5.18;2.88;;;9.70;94.30;;;;;;5016314;28;20347;-77
2021/12/27 12:18:34;;;;;;;5.43;2.90;;;10.00;94.10;;;;;;5015969;28;20117;-77
2021/12/27 12:21:00;;;;;;;4.65;2.58;;;10.40;93.50;;;;;;5023045;28;20434;-77
2021/12/27 12:23:26;;;;;;;5.80;3.20;;;10.70;91.80;;;;;;5019014;28;20022;-77
2021/12/27 12:26:03;;;;;;;6.07;3.22;;;10.80;91.40;;;;;;5015053;28;20075;-77
2021/12/27 12:28:30;;;;;;;6.50;3.60;;;10.90;90.30;;;;;;5015689;28;20044;-77
2021/12/27 12:30:57;;;;;;;6.35;4.00;;;10.90;91.60;;;;;;5013413;28;20034;-77
2021/12/27 12:33:25;;;;;;;6.40;3.47;;;10.60;91.00;;;;;;5013123;28;20038;-77
2021/12/27 12:36:04;;;;;;;5.75;2.97;;;10.20;92.90;;;;;;5010640;28;20166;-77
2021/12/27 12:38:38;;;;;;;4.88;2.85;;;10.20;93.40;;;;;;5014205;28;20062;-77
2021/12/27 12:41:06;;;;;;;5.85;3.08;;;10.60;92.70;;;;;;5016060;28;20018;-77
2021/12/27 12:43:54;;;;;;;5.18;3.13;;;10.70;90.90;;;;;;5015289;28;20041;-77
2021/12/27 12:46:46;;;;;;;6.25;3.22;;;10.10;93.10;;;;;;5023342;28;20032;-77
2021/12/27 12:49:22;;;;;;;7.50;3.30;;;9.70;94.00;;;;;;5030840;28;20056;-77
2021/12/27 12:51:56;;;;;;;5.40;2.88;;;9.70;94.60;;;;;;5020850;28;20414;-77
2021/12/27 12:54:26;;;;;;;5.20;2.83;;;9.80;94.40;;;;;;5017102;28;20079;-77
2021/12/27 12:57:03;;;;;;;5.00;2.78;;;9.70;94.50;;;;;;5025373;28;20674;-77
2021/12/27 12:59:34;;;;;;;4.95;2.80;;;9.70;94.60;;;;;;5029518;28;20025;-77
2021/12/27 13:02:21;;;;;;;5.57;2.90;;;9.80;95.00;;;;;;5020774;28;20040;-77